sensor_id;sensor_type;location;lat;lon;timestamp;pressure;altitude;pressure_sealevel;temperature;humidity
30897;BME280;64229;52.246;21.054;2022-10-16T00:00:53;100671.09;;;14.07;76.88
30897;BME280;64229;52.246;21.054;2022-10-16T00:03:18;100676.72;;;14.10;76.69
30897;BME280;64229;52.246;21.054;2022-10-16T00:05:44;100673.22;;;14.15;76.53
30897;BME280;64229;52.246;21.054;2022-10-16T00:08:11;100678.59;;;14.10;76.73
30897;BME280;64229;52.246;21.054;2022-10-16T00:10:36;100676.72;;;14.10;76.67
30897;BME280;64229;52.246;21.054;2022-10-16T00:13:03;100682.09;;;14.10;76.54
30897;BME280;64229;52.246;21.054;2022-10-16T00:15:28;100666.78;;;14.11;76.47
30897;BME280;64229;52.246;21.054;2022-10-16T00:17:54;100670.03;;;14.08;76.71
30897;BME280;64229;52.246;21.054;2022-10-16T00:20:19;100668.94;;;14.09;76.50
30897;BME280;64229;52.246;21.054;2022-10-16T00:22:44;100668.94;;;14.09;76.60
30897;BME280;64229;52.246;21.054;2022-10-16T00:25:09;100665.22;;;14.05;76.78
30897;BME280;64229;52.246;21.054;2022-10-16T00:27:35;100660.94;;;14.04;76.97
30897;BME280;64229;52.246;21.054;2022-10-16T00:30:00;100670.53;;;14.10;76.46
30897;BME280;64229;52.246;21.054;2022-10-16T00:32:25;100677.22;;;14.17;76.28
30897;BME280;64229;52.246;21.054;2022-10-16T00:34:51;100683.38;;;14.18;76.33
30897;BME280;64229;52.246;21.054;2022-10-16T00:37:16;100678.59;;;14.15;76.17
30897;BME280;64229;52.246;21.054;2022-10-16T00:39:41;100686.16;;;14.03;77.06
30897;BME280;64229;52.246;21.054;2022-10-16T00:42:12;100681.56;;;14.08;77.01
30897;BME280;64229;52.246;21.054;2022-10-16T00:44:51;100674.59;;;14.02;77.82
30897;BME280;64229;52.246;21.054;2022-10-16T00:47:33;100691.31;;;13.94;78.68
30897;BME280;64229;52.246;21.054;2022-10-16T00:50:09;100673.69;;;13.78;79.54
30897;BME280;64229;52.246;21.054;2022-10-16T00:52:36;100682.25;;;13.85;80.32
30897;BME280;64229;52.246;21.054;2022-10-16T00:55:05;100681.97;;;13.81;80.74
30897;BME280;64229;52.246;21.054;2022-10-16T00:57:31;100687.63;;;13.80;80.88
30897;BME280;64229;52.246;21.054;2022-10-16T00:59:57;100685.22;;;13.78;81.33
30897;BME280;64229;52.246;21.054;2022-10-16T01:02:23;100683.91;;;13.71;81.89
30897;BME280;64229;52.246;21.054;2022-10-16T01:04:50;100693.53;;;13.77;81.96
30897;BME280;64229;52.246;21.054;2022-10-16T01:07:27;100683.66;;;13.72;82.41
30897;BME280;64229;52.246;21.054;2022-10-16T01:10:03;100678.59;;;13.60;82.30
30897;BME280;64229;52.246;21.054;2022-10-16T01:12:49;100703.75;;;13.75;82.51
30897;BME280;64229;52.246;21.054;2022-10-16T01:15:22;100700.28;;;13.74;82.25
30897;BME280;64229;52.246;21.054;2022-10-16T01:20:37;100704.88;;;13.58;82.68
30897;BME280;64229;52.246;21.054;2022-10-16T01:25:52;100694.69;;;13.60;82.83
30897;BME280;64229;52.246;21.054;2022-10-16T01:28:24;100696.03;;;13.63;82.80
30897;BME280;64229;52.246;21.054;2022-10-16T01:30:56;100712.66;;;13.65;82.57
30897;BME280;64229;52.246;21.054;2022-10-16T01:33:28;100701.34;;;13.68;82.69
30897;BME280;64229;52.246;21.054;2022-10-16T01:35:59;100707.78;;;13.72;82.74
30897;BME280;64229;52.246;21.054;2022-10-16T01:38:36;100701.34;;;13.68;82.40
30897;BME280;64229;52.246;21.054;2022-10-16T01:41:08;100708.59;;;13.73;82.31
30897;BME280;64229;52.246;21.054;2022-10-16T01:43:39;100717.44;;;13.68;82.71
30897;BME280;64229;52.246;21.054;2022-10-16T01:46:06;100708.59;;;13.73;82.53
30897;BME280;64229;52.246;21.054;2022-10-16T01:48:34;100708.03;;;13.71;82.29
30897;BME280;64229;52.246;21.054;2022-10-16T01:51:06;100715.28;;;13.70;82.49
30897;BME280;64229;52.246;21.054;2022-10-16T01:53:33;100717.22;;;13.65;82.78
30897;BME280;64229;52.246;21.054;2022-10-16T01:56:00;100715.06;;;13.67;83.19
30897;BME280;64229;52.246;21.054;2022-10-16T01:58:27;100714.22;;;13.71;83.10
30897;BME280;64229;52.246;21.054;2022-10-16T02:00:55;100713.44;;;13.60;83.98
30897;BME280;64229;52.246;21.054;2022-10-16T02:03:21;100711.06;;;13.54;84.38
30897;BME280;64229;52.246;21.054;2022-10-16T02:05:53;100715.13;;;13.51;84.31
30897;BME280;64229;52.246;21.054;2022-10-16T02:08:19;100710.06;;;13.35;85.64
30897;BME280;64229;52.246;21.054;2022-10-16T02:10:44;100707.41;;;13.24;86.40
30897;BME280;64229;52.246;21.054;2022-10-16T02:13:15;100704.44;;;13.26;86.78
30897;BME280;64229;52.246;21.054;2022-10-16T02:15:42;100705.53;;;13.25;87.35
30897;BME280;64229;52.246;21.054;2022-10-16T02:18:09;100707.13;;;13.26;87.63
30897;BME280;64229;52.246;21.054;2022-10-16T02:20:55;100707.97;;;13.21;87.63
30897;BME280;64229;52.246;21.054;2022-10-16T02:26:31;100704.16;;;13.17;87.52
30897;BME280;64229;52.246;21.054;2022-10-16T02:29:05;100705.25;;;13.06;88.35
30897;BME280;64229;52.246;21.054;2022-10-16T02:31:33;100705.00;;;13.13;87.79
30897;BME280;64229;52.246;21.054;2022-10-16T02:34:03;100705.78;;;13.13;88.26
30897;BME280;64229;52.246;21.054;2022-10-16T02:36:30;100700.47;;;13.08;88.48
30897;BME280;64229;52.246;21.054;2022-10-16T02:38:57;100712.25;;;13.02;88.86
30897;BME280;64229;52.246;21.054;2022-10-16T02:41:24;100709.03;;;12.95;89.35
30897;BME280;64229;52.246;21.054;2022-10-16T02:43:49;100718.16;;;12.94;89.65
30897;BME280;64229;52.246;21.054;2022-10-16T02:46:15;100711.72;;;12.95;90.02
30897;BME280;64229;52.246;21.054;2022-10-16T02:48:41;100714.13;;;12.96;89.89
30897;BME280;64229;52.246;21.054;2022-10-16T02:51:07;100716.56;;;12.98;90.02
30897;BME280;64229;52.246;21.054;2022-10-16T02:53:32;100712.25;;;12.92;90.21
30897;BME280;64229;52.246;21.054;2022-10-16T02:55:57;100708.22;;;12.94;90.63
30897;BME280;64229;52.246;21.054;2022-10-16T02:58:22;100717.34;;;12.93;90.44
30897;BME280;64229;52.246;21.054;2022-10-16T03:00:48;100717.59;;;12.97;90.52
30897;BME280;64229;52.246;21.054;2022-10-16T03:03:13;100714.91;;;12.97;90.73
30897;BME280;64229;52.246;21.054;2022-10-16T03:05:38;100722.97;;;12.92;91.00
30897;BME280;64229;52.246;21.054;2022-10-16T03:08:04;100725.41;;;12.98;90.84
30897;BME280;64229;52.246;21.054;2022-10-16T03:10:29;100708.50;;;12.83;91.13
30897;BME280;64229;52.246;21.054;2022-10-16T03:12:54;100727.00;;;12.94;90.92
30897;BME280;64229;52.246;21.054;2022-10-16T03:15:19;100736.63;;;13.00;90.88
30897;BME280;64229;52.246;21.054;2022-10-16T03:17:45;100735.56;;;12.96;91.12
30897;BME280;64229;52.246;21.054;2022-10-16T03:20:10;100735.56;;;13.01;90.73
30897;BME280;64229;52.246;21.054;2022-10-16T03:22:35;100731.00;;;12.92;90.60
30897;BME280;64229;52.246;21.054;2022-10-16T03:25:01;100744.38;;;12.97;90.91
30897;BME280;64229;52.246;21.054;2022-10-16T03:27:26;100751.13;;;12.99;90.70
30897;BME280;64229;52.246;21.054;2022-10-16T03:29:51;100744.94;;;12.99;90.53
30897;BME280;64229;52.246;21.054;2022-10-16T03:32:16;100751.91;;;13.00;90.60
30897;BME280;64229;52.246;21.054;2022-10-16T03:34:42;100753.50;;;12.96;90.48
30897;BME280;64229;52.246;21.054;2022-10-16T03:37:07;100737.97;;;12.93;90.56
30897;BME280;64229;52.246;21.054;2022-10-16T03:39:32;100745.22;;;12.82;91.13
30897;BME280;64229;52.246;21.054;2022-10-16T03:41:58;100747.91;;;12.77;91.86
30897;BME280;64229;52.246;21.054;2022-10-16T03:44:23;100751.38;;;12.78;91.57
30897;BME280;64229;52.246;21.054;2022-10-16T03:46:48;100752.72;;;12.80;91.29
30897;BME280;64229;52.246;21.054;2022-10-16T03:49:13;100742.00;;;12.80;91.11
30897;BME280;64229;52.246;21.054;2022-10-16T03:51:39;100747.09;;;12.82;91.00
30897;BME280;64229;52.246;21.054;2022-10-16T03:54:04;100754.31;;;12.86;90.49
30897;BME280;64229;52.246;21.054;2022-10-16T03:56:29;100753.25;;;12.82;90.51
30897;BME280;64229;52.246;21.054;2022-10-16T03:58:54;100759.44;;;12.88;90.29
30897;BME280;64229;52.246;21.054;2022-10-16T04:01:20;100758.59;;;12.92;89.97
30897;BME280;64229;52.246;21.054;2022-10-16T04:03:45;100761.53;;;12.96;89.48
30897;BME280;64229;52.246;21.054;2022-10-16T04:06:10;100758.06;;;12.90;89.59
30897;BME280;64229;52.246;21.054;2022-10-16T04:08:35;100765.03;;;12.91;89.30
30897;BME280;64229;52.246;21.054;2022-10-16T04:11:02;100763.97;;;12.92;89.26
30897;BME280;64229;52.246;21.054;2022-10-16T04:13:27;100754.59;;;12.85;89.75
30897;BME280;64229;52.246;21.054;2022-10-16T04:15:52;100754.31;;;12.86;89.99
30897;BME280;64229;52.246;21.054;2022-10-16T04:18:18;100755.41;;;12.80;89.81
30897;BME280;64229;52.246;21.054;2022-10-16T04:20:43;100752.44;;;12.82;89.85
30897;BME280;64229;52.246;21.054;2022-10-16T04:23:08;100767.97;;;12.74;90.14
30897;BME280;64229;52.246;21.054;2022-10-16T04:25:34;100762.91;;;12.68;90.30
30897;BME280;64229;52.246;21.054;2022-10-16T04:27:59;100760.22;;;12.68;90.25
30897;BME280;64229;52.246;21.054;2022-10-16T04:30:24;100761.53;;;12.60;90.33
30897;BME280;64229;52.246;21.054;2022-10-16T04:32:50;100761.00;;;12.63;90.55
30897;BME280;64229;52.246;21.054;2022-10-16T04:35:17;100767.16;;;12.64;90.46
30897;BME280;64229;52.246;21.054;2022-10-16T04:37:42;100767.97;;;12.59;90.63
30897;BME280;64229;52.246;21.054;2022-10-16T04:40:08;100773.84;;;12.61;90.74
30897;BME280;64229;52.246;21.054;2022-10-16T04:42:33;100774.13;;;12.65;90.44
30897;BME280;64229;52.246;21.054;2022-10-16T04:44:58;100773.31;;;12.64;90.39
30897;BME280;64229;52.246;21.054;2022-10-16T04:47:24;100775.72;;;12.61;90.64
30897;BME280;64229;52.246;21.054;2022-10-16T04:49:49;100779.75;;;12.58;90.68
30897;BME280;64229;52.246;21.054;2022-10-16T04:52:14;100776.81;;;12.55;90.72
30897;BME280;64229;52.246;21.054;2022-10-16T04:54:40;100779.72;;;12.53;90.96
30897;BME280;64229;52.246;21.054;2022-10-16T04:57:05;100786.72;;;12.59;90.69
30897;BME280;64229;52.246;21.054;2022-10-16T04:59:30;100782.69;;;12.52;90.67
30897;BME280;64229;52.246;21.054;2022-10-16T05:01:55;100779.50;;;12.55;90.72
30897;BME280;64229;52.246;21.054;2022-10-16T05:04:21;100786.16;;;12.52;90.97
30897;BME280;64229;52.246;21.054;2022-10-16T05:06:47;100787.75;;;12.53;90.76
30897;BME280;64229;52.246;21.054;2022-10-16T05:09:12;100779.72;;;12.43;90.78
30897;BME280;64229;52.246;21.054;2022-10-16T05:11:38;100790.72;;;12.47;90.98
30897;BME280;64229;52.246;21.054;2022-10-16T05:14:03;100788.31;;;12.50;90.83
30897;BME280;64229;52.246;21.054;2022-10-16T05:16:28;100803.81;;;12.53;90.38
30897;BME280;64229;52.246;21.054;2022-10-16T05:18:55;100804.66;;;12.59;89.83
30897;BME280;64229;52.246;21.054;2022-10-16T05:21:21;100803.59;;;12.60;89.85
30897;BME280;64229;52.246;21.054;2022-10-16T05:23:46;100806.78;;;12.62;89.57
30897;BME280;64229;52.246;21.054;2022-10-16T05:26:11;100814.84;;;12.67;89.05
30897;BME280;64229;52.246;21.054;2022-10-16T05:28:37;100815.13;;;12.70;88.55
30897;BME280;64229;52.246;21.054;2022-10-16T05:31:07;100805.75;;;12.68;88.74
30897;BME280;64229;52.246;21.054;2022-10-16T05:33:33;100813.78;;;12.68;88.47
30897;BME280;64229;52.246;21.054;2022-10-16T05:36:03;100825.81;;;12.70;88.26
30897;BME280;64229;52.246;21.054;2022-10-16T05:38:30;100804.38;;;12.60;88.04
30897;BME280;64229;52.246;21.054;2022-10-16T05:40:55;100811.38;;;12.66;88.22
30897;BME280;64229;52.246;21.054;2022-10-16T05:43:21;100814.56;;;12.63;88.00
30897;BME280;64229;52.246;21.054;2022-10-16T05:46:01;100805.69;;;12.53;88.20
30897;BME280;64229;52.246;21.054;2022-10-16T05:48:27;100810.25;;;12.52;88.58
30897;BME280;64229;52.246;21.054;2022-10-16T05:50:59;100820.44;;;12.45;89.18
30897;BME280;64229;52.246;21.054;2022-10-16T05:53:27;100812.09;;;12.41;89.15
30897;BME280;64229;52.246;21.054;2022-10-16T05:55:53;100809.16;;;12.43;89.05
30897;BME280;64229;52.246;21.054;2022-10-16T05:58:18;100820.19;;;12.57;88.51
30897;BME280;64229;52.246;21.054;2022-10-16T06:00:44;100819.66;;;12.60;88.19
30897;BME280;64229;52.246;21.054;2022-10-16T06:03:09;100830.91;;;12.67;87.77
30897;BME280;64229;52.246;21.054;2022-10-16T06:05:34;100825.56;;;12.72;87.36
30897;BME280;64229;52.246;21.054;2022-10-16T06:07:59;100839.22;;;12.70;87.16
30897;BME280;64229;52.246;21.054;2022-10-16T06:10:25;100847.78;;;12.72;87.29
30897;BME280;64229;52.246;21.054;2022-10-16T06:12:50;100837.59;;;12.74;87.13
30897;BME280;64229;52.246;21.054;2022-10-16T06:15:15;100845.41;;;12.76;86.69
30897;BME280;64229;52.246;21.054;2022-10-16T06:17:40;100846.97;;;12.72;86.82
30897;BME280;64229;52.246;21.054;2022-10-16T06:20:06;100849.94;;;12.70;87.00
30897;BME280;64229;52.246;21.054;2022-10-16T06:22:31;100853.69;;;12.85;86.69
30897;BME280;64229;52.246;21.054;2022-10-16T06:24:56;100853.19;;;12.88;86.64
30897;BME280;64229;52.246;21.054;2022-10-16T06:27:22;100856.13;;;13.01;85.45
30897;BME280;64229;52.246;21.054;2022-10-16T06:29:47;100847.28;;;13.06;84.95
30897;BME280;64229;52.246;21.054;2022-10-16T06:32:12;100853.19;;;13.03;85.17
30897;BME280;64229;52.246;21.054;2022-10-16T06:34:37;100855.88;;;13.08;84.95
30897;BME280;64229;52.246;21.054;2022-10-16T06:37:05;100856.16;;;13.12;84.66
30897;BME280;64229;52.246;21.054;2022-10-16T06:39:30;100856.69;;;13.14;84.54
30897;BME280;64229;52.246;21.054;2022-10-16T06:41:55;100867.19;;;13.30;84.26
30897;BME280;64229;52.246;21.054;2022-10-16T06:44:20;100869.31;;;13.28;84.72
30897;BME280;64229;52.246;21.054;2022-10-16T06:46:46;100876.81;;;13.47;83.40
30897;BME280;64229;52.246;21.054;2022-10-16T06:49:11;100868.50;;;13.48;83.33
30897;BME280;64229;52.246;21.054;2022-10-16T06:51:36;100876.53;;;13.53;83.32
30897;BME280;64229;52.246;21.054;2022-10-16T06:54:06;100866.34;;;13.55;83.15
30897;BME280;64229;52.246;21.054;2022-10-16T06:56:32;100877.03;;;13.71;82.30
30897;BME280;64229;52.246;21.054;2022-10-16T06:58:58;100881.06;;;13.83;82.06
30897;BME280;64229;52.246;21.054;2022-10-16T07:01:24;100880.25;;;13.83;82.27
30897;BME280;64229;52.246;21.054;2022-10-16T07:03:50;100876.69;;;14.03;80.68
30897;BME280;64229;52.246;21.054;2022-10-16T07:06:17;100879.66;;;14.06;80.17
30897;BME280;64229;52.246;21.054;2022-10-16T07:08:44;100879.38;;;14.08;80.47
30897;BME280;64229;52.246;21.054;2022-10-16T07:11:15;100887.84;;;14.35;79.50
30897;BME280;64229;52.246;21.054;2022-10-16T07:13:41;100886.47;;;14.53;78.79
30897;BME280;64229;52.246;21.054;2022-10-16T07:16:13;100899.56;;;14.70;77.89
30897;BME280;64229;52.246;21.054;2022-10-16T07:18:38;100896.81;;;14.80;77.68
30897;BME280;64229;52.246;21.054;2022-10-16T07:21:10;100905.34;;;14.87;75.89
30897;BME280;64229;52.246;21.054;2022-10-16T07:23:36;100910.28;;;14.75;76.97
30897;BME280;64229;52.246;21.054;2022-10-16T07:26:02;100907.53;;;14.85;75.72
30897;BME280;64229;52.246;21.054;2022-10-16T07:28:28;100903.53;;;14.77;76.14
30897;BME280;64229;52.246;21.054;2022-10-16T07:30:54;100898.72;;;14.80;76.16
30897;BME280;64229;52.246;21.054;2022-10-16T07:33:19;100887.41;;;14.83;75.96
30897;BME280;64229;52.246;21.054;2022-10-16T07:35:50;100895.41;;;14.88;75.74
30897;BME280;64229;52.246;21.054;2022-10-16T07:38:16;100882.63;;;14.69;76.11
30897;BME280;64229;52.246;21.054;2022-10-16T07:40:41;100891.72;;;14.79;76.04
30897;BME280;64229;52.246;21.054;2022-10-16T07:43:07;100886.88;;;14.81;75.96
30897;BME280;64229;52.246;21.054;2022-10-16T07:45:32;100871.63;;;14.66;76.75
30897;BME280;64229;52.246;21.054;2022-10-16T07:47:57;100886.19;;;14.60;76.53
30897;BME280;64229;52.246;21.054;2022-10-16T07:50:23;100880.25;;;14.63;77.42
30897;BME280;64229;52.246;21.054;2022-10-16T07:52:48;100875.91;;;14.67;77.31
30897;BME280;64229;52.246;21.054;2022-10-16T07:55:13;100873.59;;;14.94;76.23
30897;BME280;64229;52.246;21.054;2022-10-16T07:57:39;100873.47;;;15.10;75.41
30897;BME280;64229;52.246;21.054;2022-10-16T08:00:04;100879.78;;;15.29;74.77
30897;BME280;64229;52.246;21.054;2022-10-16T08:02:31;100879.56;;;15.25;75.25
30897;BME280;64229;52.246;21.054;2022-10-16T08:04:56;100885.59;;;15.41;75.17
30897;BME280;64229;52.246;21.054;2022-10-16T08:07:21;100884.56;;;15.71;74.91
30897;BME280;64229;52.246;21.054;2022-10-16T08:09:49;100889.22;;;16.13;72.52
30897;BME280;64229;52.246;21.054;2022-10-16T08:12:14;100893.06;;;16.31;71.23
30897;BME280;64229;52.246;21.054;2022-10-16T08:14:40;100904.44;;;16.47;71.59
30897;BME280;64229;52.246;21.054;2022-10-16T08:17:05;100912.81;;;16.69;69.67
30897;BME280;64229;52.246;21.054;2022-10-16T08:19:30;100895.84;;;16.88;68.47
30897;BME280;64229;52.246;21.054;2022-10-16T08:21:59;100900.47;;;17.20;67.76
30897;BME280;64229;52.246;21.054;2022-10-16T08:24:24;100904.84;;;17.34;66.54
30897;BME280;64229;52.246;21.054;2022-10-16T08:26:49;100908.84;;;17.37;66.52
30897;BME280;64229;52.246;21.054;2022-10-16T08:29:15;100912.38;;;17.19;67.51
30897;BME280;64229;52.246;21.054;2022-10-16T08:31:40;100917.13;;;17.08;67.42
30897;BME280;64229;52.246;21.054;2022-10-16T08:34:05;100912.59;;;17.03;67.69
30897;BME280;64229;52.246;21.054;2022-10-16T08:36:30;100901.16;;;16.93;68.33
30897;BME280;64229;52.246;21.054;2022-10-16T08:38:55;100919.59;;;17.23;68.53
30897;BME280;64229;52.246;21.054;2022-10-16T08:44:19;100923.28;;;17.92;64.92
30897;BME280;64229;52.246;21.054;2022-10-16T08:47:02;100923.91;;;17.89;65.39
30897;BME280;64229;52.246;21.054;2022-10-16T08:49:32;100921.47;;;17.74;65.98
30897;BME280;64229;52.246;21.054;2022-10-16T08:51:58;100916.41;;;17.86;65.04
30897;BME280;64229;52.246;21.054;2022-10-16T08:54:33;100931.19;;;17.89;65.68
30897;BME280;64229;52.246;21.054;2022-10-16T08:57:11;100929.91;;;18.00;65.11
30897;BME280;64229;52.246;21.054;2022-10-16T08:59:37;100927.44;;;18.31;64.43
30897;BME280;64229;52.246;21.054;2022-10-16T09:02:19;100921.00;;;18.55;63.60
30897;BME280;64229;52.246;21.054;2022-10-16T09:07:49;100935.50;;;18.59;63.45
30897;BME280;64229;52.246;21.054;2022-10-16T09:10:33;100932.38;;;18.93;62.48
30897;BME280;64229;52.246;21.054;2022-10-16T09:16:00;100945.69;;;18.89;63.06
30897;BME280;64229;52.246;21.054;2022-10-16T09:18:52;100939.19;;;19.26;60.78
30897;BME280;64229;52.246;21.054;2022-10-16T09:21:23;100935.13;;;19.60;60.08
30897;BME280;64229;52.246;21.054;2022-10-16T09:23:50;100931.44;;;19.78;59.32
30897;BME280;64229;52.246;21.054;2022-10-16T09:26:16;100923.75;;;19.72;59.67
30897;BME280;64229;52.246;21.054;2022-10-16T09:28:44;100927.19;;;19.63;60.36
30897;BME280;64229;52.246;21.054;2022-10-16T09:31:15;100930.38;;;19.65;60.26
30897;BME280;64229;52.246;21.054;2022-10-16T09:33:42;100917.91;;;19.87;59.90
30897;BME280;64229;52.246;21.054;2022-10-16T09:36:09;100922.78;;;19.68;60.02
30897;BME280;64229;52.246;21.054;2022-10-16T09:38:36;100922.56;;;19.95;58.66
30897;BME280;64229;52.246;21.054;2022-10-16T09:41:12;100925.06;;;19.83;59.28
30897;BME280;64229;52.246;21.054;2022-10-16T09:43:41;100927.25;;;19.50;59.91
30897;BME280;64229;52.246;21.054;2022-10-16T09:46:29;100919.94;;;19.28;61.41
30897;BME280;64229;52.246;21.054;2022-10-16T09:49:04;100916.25;;;19.46;60.65
30897;BME280;64229;52.246;21.054;2022-10-16T09:51:36;100928.63;;;19.61;60.11
30897;BME280;64229;52.246;21.054;2022-10-16T09:54:14;100924.06;;;19.70;59.90
30897;BME280;64229;52.246;21.054;2022-10-16T09:56:39;100934.56;;;19.49;60.67
30897;BME280;64229;52.246;21.054;2022-10-16T09:59:16;100928.41;;;19.35;62.33
30897;BME280;64229;52.246;21.054;2022-10-16T10:01:49;100924.16;;;19.43;62.33
30897;BME280;64229;52.246;21.054;2022-10-16T10:04:16;100920.34;;;19.44;61.67
30897;BME280;64229;52.246;21.054;2022-10-16T10:06:45;100918.94;;;19.46;61.87
30897;BME280;64229;52.246;21.054;2022-10-16T10:11:48;100928.22;;;19.76;60.65
30897;BME280;64229;52.246;21.054;2022-10-16T10:14:21;100921.09;;;19.80;60.50
30897;BME280;64229;52.246;21.054;2022-10-16T10:16:47;100932.19;;;20.01;59.39
30897;BME280;64229;52.246;21.054;2022-10-16T10:19:15;100935.69;;;20.02;59.20
30897;BME280;64229;52.246;21.054;2022-10-16T10:21:41;100933.00;;;20.10;59.29
30897;BME280;64229;52.246;21.054;2022-10-16T10:24:10;100917.31;;;19.90;60.11
30897;BME280;64229;52.246;21.054;2022-10-16T10:26:36;100918.25;;;19.63;61.01
30897;BME280;64229;52.246;21.054;2022-10-16T10:29:28;100909.41;;;19.71;61.07
30897;BME280;64229;52.246;21.054;2022-10-16T10:32:06;100918.16;;;19.99;59.72
30897;BME280;64229;52.246;21.054;2022-10-16T10:34:40;100905.97;;;19.88;60.29
30897;BME280;64229;52.246;21.054;2022-10-16T10:39:48;100910.94;;;19.94;59.85
30897;BME280;64229;52.246;21.054;2022-10-16T10:42:22;100905.03;;;19.61;60.57
30897;BME280;64229;52.246;21.054;2022-10-16T10:47:53;100908.97;;;19.33;61.96
30897;BME280;64229;52.246;21.054;2022-10-16T10:50:29;100917.47;;;19.62;61.49
30897;BME280;64229;52.246;21.054;2022-10-16T10:52:59;100912.84;;;19.41;61.66
30897;BME280;64229;52.246;21.054;2022-10-16T10:56:00;100907.06;;;19.33;62.28
30897;BME280;64229;52.246;21.054;2022-10-16T11:02:00;100912.31;;;19.83;60.31
30897;BME280;64229;52.246;21.054;2022-10-16T11:04:50;100907.69;;;19.84;60.12
30897;BME280;64229;52.246;21.054;2022-10-16T11:07:35;100902.66;;;19.91;60.07
30897;BME280;64229;52.246;21.054;2022-10-16T11:10:53;100906.63;;;19.93;60.04
30897;BME280;64229;52.246;21.054;2022-10-16T11:13:31;100906.47;;;19.90;59.99
30897;BME280;64229;52.246;21.054;2022-10-16T11:16:02;100890.53;;;19.88;59.84
30897;BME280;64229;52.246;21.054;2022-10-16T11:18:46;100898.50;;;19.62;60.98
30897;BME280;64229;52.246;21.054;2022-10-16T11:21:16;100910.38;;;19.53;61.57
30897;BME280;64229;52.246;21.054;2022-10-16T11:23:51;100905.13;;;19.25;62.68
30897;BME280;64229;52.246;21.054;2022-10-16T11:26:21;100906.31;;;19.19;62.75
30897;BME280;64229;52.246;21.054;2022-10-16T11:28:53;100900.34;;;19.53;61.87
30897;BME280;64229;52.246;21.054;2022-10-16T11:34:11;100918.31;;;20.03;60.32
30897;BME280;64229;52.246;21.054;2022-10-16T11:36:52;100914.59;;;19.99;60.39
30897;BME280;64229;52.246;21.054;2022-10-16T11:39:22;100912.31;;;19.83;60.72
30897;BME280;64229;52.246;21.054;2022-10-16T11:41:52;100919.75;;;19.69;61.70
30897;BME280;64229;52.246;21.054;2022-10-16T11:44:36;100913.91;;;19.84;61.24
30897;BME280;64229;52.246;21.054;2022-10-16T11:47:13;100904.19;;;19.83;61.61
30897;BME280;64229;52.246;21.054;2022-10-16T11:49:40;100912.25;;;20.06;60.65
30897;BME280;64229;52.246;21.054;2022-10-16T11:52:42;100897.34;;;20.26;59.67
30897;BME280;64229;52.246;21.054;2022-10-16T11:55:18;100903.03;;;20.55;58.53
30897;BME280;64229;52.246;21.054;2022-10-16T11:57:51;100897.13;;;20.62;58.97
30897;BME280;64229;52.246;21.054;2022-10-16T12:00:29;100902.72;;;20.65;58.62
30897;BME280;64229;52.246;21.054;2022-10-16T12:03:20;100895.22;;;20.62;57.90
30897;BME280;64229;52.246;21.054;2022-10-16T12:08:40;100899.75;;;20.36;58.56
30897;BME280;64229;52.246;21.054;2022-10-16T12:16:52;100901.63;;;20.18;59.54
30897;BME280;64229;52.246;21.054;2022-10-16T12:19:18;100901.97;;;20.25;59.43
30897;BME280;64229;52.246;21.054;2022-10-16T12:21:45;100914.69;;;20.16;60.19
30897;BME280;64229;52.246;21.054;2022-10-16T12:24:39;100913.91;;;20.15;59.94
30897;BME280;64229;52.246;21.054;2022-10-16T12:29:46;100921.91;;;20.20;59.26
30897;BME280;64229;52.246;21.054;2022-10-16T12:34:52;100914.59;;;19.90;60.48
30897;BME280;64229;52.246;21.054;2022-10-16T12:37:23;100910.56;;;19.79;61.05
30897;BME280;64229;52.246;21.054;2022-10-16T12:39:49;100921.13;;;19.58;62.15
30897;BME280;64229;52.246;21.054;2022-10-16T12:42:31;100920.03;;;19.45;62.95
30897;BME280;64229;52.246;21.054;2022-10-16T12:44:58;100923.91;;;19.30;63.09
30897;BME280;64229;52.246;21.054;2022-10-16T12:47:38;100937.44;;;19.08;64.20
30897;BME280;64229;52.246;21.054;2022-10-16T12:50:22;100932.28;;;19.20;63.02
30897;BME280;64229;52.246;21.054;2022-10-16T12:52:48;100932.22;;;19.34;62.95
30897;BME280;64229;52.246;21.054;2022-10-16T12:55:16;100931.41;;;19.33;62.57
30897;BME280;64229;52.246;21.054;2022-10-16T12:58:00;100929.66;;;19.29;63.06
30897;BME280;64229;52.246;21.054;2022-10-16T13:00:45;100927.59;;;19.12;63.50
30897;BME280;64229;52.246;21.054;2022-10-16T13:03:31;100950.69;;;18.96;64.39
30897;BME280;64229;52.246;21.054;2022-10-16T13:06:10;100941.31;;;18.79;64.67
30897;BME280;64229;52.246;21.054;2022-10-16T13:14:52;100912.22;;;19.21;63.62
30897;BME280;64229;52.246;21.054;2022-10-16T13:17:33;100934.13;;;19.33;63.39
30897;BME280;64229;52.246;21.054;2022-10-16T13:25:26;100942.09;;;18.80;65.93
30897;BME280;64229;52.246;21.054;2022-10-16T13:28:03;100938.81;;;18.69;66.35
30897;BME280;64229;52.246;21.054;2022-10-16T13:30:30;100942.44;;;18.65;66.72
30897;BME280;64229;52.246;21.054;2022-10-16T13:33:02;100953.44;;;18.68;66.45
30897;BME280;64229;52.246;21.054;2022-10-16T13:35:31;100950.03;;;18.63;67.12
30897;BME280;64229;52.246;21.054;2022-10-16T13:38:18;100939.81;;;18.60;66.52
30897;BME280;64229;52.246;21.054;2022-10-16T13:41:04;100956.72;;;18.79;66.21
30897;BME280;64229;52.246;21.054;2022-10-16T13:46:04;100954.91;;;18.61;67.24
30897;BME280;64229;52.246;21.054;2022-10-16T13:48:32;100961.44;;;18.60;67.83
30897;BME280;64229;52.246;21.054;2022-10-16T13:51:17;100948.13;;;18.49;67.50